createdAt,value
2018-08-10T00:01:58.632Z,2.10
2018-08-10T00:04:26.995Z,2.70
2018-08-10T00:06:55.597Z,2.17
2018-08-10T00:09:23.964Z,2.30
2018-08-10T00:11:52.709Z,2.03
2018-08-10T00:14:21.052Z,2.33
2018-08-10T00:16:49.430Z,2.37
2018-08-10T00:19:17.828Z,2.57
2018-08-10T00:21:46.219Z,2.70
2018-08-10T00:24:14.591Z,2.97
2018-08-10T00:26:43.022Z,2.80
2018-08-10T00:29:11.448Z,2.20
2018-08-10T00:31:39.827Z,2.10
2018-08-10T00:34:08.184Z,2.20
2018-08-10T00:36:36.596Z,2.00
2018-08-10T00:39:09.092Z,1.60
2018-08-10T00:41:38.016Z,1.80
2018-08-10T00:44:06.447Z,1.23
2018-08-10T00:46:34.854Z,1.37
2018-08-10T00:49:03.198Z,1.70
2018-08-10T00:51:31.609Z,1.30
2018-08-10T00:54:00.069Z,1.40
2018-08-10T00:56:28.478Z,1.23
2018-08-10T00:58:56.877Z,1.47
2018-08-10T01:01:25.302Z,1.43
2018-08-10T01:03:53.697Z,1.40
2018-08-10T01:06:22.126Z,1.20
2018-08-10T01:08:50.564Z,1.20
2018-08-10T01:11:18.991Z,1.20
2018-08-10T01:13:47.674Z,0.97
2018-08-10T01:16:16.004Z,1.20
2018-08-10T01:18:44.392Z,1.10
2018-08-10T01:21:12.804Z,1.10
2018-08-10T01:23:41.139Z,1.13
2018-08-10T01:26:09.592Z,0.93
2018-08-10T01:28:38.062Z,1.13
2018-08-10T01:31:06.435Z,0.90
2018-08-10T01:33:34.824Z,0.97
2018-08-10T01:36:03.204Z,1.00
2018-08-10T01:38:31.631Z,0.97
2018-08-10T01:40:59.984Z,1.00
2018-08-10T01:43:28.386Z,1.13
2018-08-10T01:45:56.797Z,1.00
2018-08-10T01:48:25.218Z,1.10
2018-08-10T01:50:53.611Z,0.97
2018-08-10T01:53:21.954Z,1.10
2018-08-10T01:55:50.347Z,1.10
2018-08-10T01:58:18.711Z,1.20
2018-08-10T02:00:47.076Z,0.90
2018-08-10T02:03:15.460Z,1.00
2018-08-10T02:05:43.867Z,1.00
2018-08-10T02:08:12.279Z,0.80
2018-08-10T02:10:40.658Z,0.90
2018-08-10T02:13:09.035Z,0.93
2018-08-10T02:15:37.472Z,0.90
2018-08-10T02:18:05.839Z,1.00
2018-08-10T02:20:34.278Z,0.97
2018-08-10T02:23:03.122Z,1.23
2018-08-10T02:25:31.636Z,0.90
2018-08-10T02:27:59.983Z,0.83
2018-08-10T02:30:28.348Z,1.00
2018-08-10T02:32:56.728Z,1.03
2018-08-10T02:35:25.064Z,1.10
2018-08-10T02:37:53.422Z,1.10
2018-08-10T02:40:55.551Z,1.00
2018-08-10T02:43:23.968Z,1.23
2018-08-10T02:45:52.336Z,1.10
2018-08-10T02:48:20.690Z,1.00
2018-08-10T02:50:49.183Z,0.90
2018-08-10T02:53:17.559Z,0.90
2018-08-10T02:55:45.923Z,1.07
2018-08-10T02:58:14.295Z,1.23
2018-08-10T03:00:42.612Z,0.97
2018-08-10T03:03:10.997Z,1.00
2018-08-10T03:05:39.437Z,1.00
2018-08-10T03:08:07.837Z,1.00
2018-08-10T03:10:36.484Z,0.90
2018-08-10T03:13:04.816Z,0.80
2018-08-10T03:15:33.178Z,0.90
2018-08-10T03:18:03.011Z,1.03
2018-08-10T03:20:31.344Z,1.00
2018-08-10T03:22:59.913Z,0.90
2018-08-10T03:25:28.469Z,1.10
2018-08-10T03:27:56.819Z,0.87
2018-08-10T03:30:25.215Z,0.80
2018-08-10T03:32:53.621Z,0.80
2018-08-10T03:35:22.013Z,0.80
2018-08-10T03:37:50.415Z,0.90
2018-08-10T03:40:18.777Z,1.07
2018-08-10T03:42:47.112Z,0.90
2018-08-10T03:45:15.471Z,0.80
2018-08-10T03:47:43.813Z,0.80
2018-08-10T03:50:13.643Z,1.00
2018-08-10T03:52:42.594Z,0.90
2018-08-10T03:55:11.328Z,0.80
2018-08-10T03:57:40.142Z,0.90
2018-08-10T04:00:10.644Z,0.80
2018-08-10T04:02:39.644Z,0.80
2018-08-10T04:05:08.756Z,1.00
2018-08-10T04:07:37.149Z,1.13
2018-08-10T04:10:06.336Z,0.80
2018-08-10T04:12:35.191Z,1.00
2018-08-10T04:15:03.670Z,0.90
2018-08-10T04:17:32.048Z,1.00
2018-08-10T04:20:00.854Z,1.10
2018-08-10T04:22:29.339Z,1.10
2018-08-10T04:24:57.759Z,1.00
2018-08-10T04:27:26.173Z,0.97
2018-08-10T04:29:54.933Z,1.07
2018-08-10T04:32:23.628Z,1.10
2018-08-10T04:34:51.973Z,1.07
2018-08-10T04:37:20.375Z,0.90
2018-08-10T04:39:49.038Z,1.10
2018-08-10T04:42:17.626Z,1.20
2018-08-10T04:44:46.574Z,1.00
2018-08-10T04:47:14.957Z,1.30
2018-08-10T04:49:43.312Z,1.00
2018-08-10T04:52:11.683Z,1.10
2018-08-10T04:54:40.035Z,0.97
2018-08-10T04:57:08.562Z,1.10
2018-08-10T04:59:37.377Z,1.40
2018-08-10T05:02:06.682Z,1.20
2018-08-10T05:04:35.063Z,1.20
2018-08-10T05:07:03.659Z,1.27
2018-08-10T05:09:31.986Z,1.30
2018-08-10T05:12:00.444Z,1.07
2018-08-10T05:14:28.834Z,1.40
2018-08-10T05:16:57.170Z,1.20
2018-08-10T05:19:25.566Z,1.50
2018-08-10T05:21:54.184Z,1.50
2018-08-10T05:24:22.585Z,1.20
2018-08-10T05:26:50.956Z,1.10
2018-08-10T05:29:19.360Z,1.20
2018-08-10T05:31:47.679Z,1.20
2018-08-10T05:34:16.039Z,1.60
2018-08-10T05:36:44.387Z,1.10
2018-08-10T05:39:13.219Z,1.10
2018-08-10T05:41:41.700Z,1.20
2018-08-10T05:44:10.070Z,1.37
2018-08-10T05:46:38.710Z,1.37
2018-08-10T05:49:07.250Z,1.23
2018-08-10T05:51:35.588Z,1.13
2018-08-10T05:54:04.092Z,1.70
2018-08-10T05:56:32.727Z,1.53
2018-08-10T05:59:01.095Z,1.20
2018-08-10T06:01:29.772Z,1.60
2018-08-10T06:03:58.321Z,1.10
2018-08-10T06:06:26.484Z,1.20
2018-08-10T06:08:54.854Z,1.10
2018-08-10T06:11:23.295Z,1.60
2018-08-10T06:13:51.691Z,1.83
2018-08-10T06:16:20.006Z,1.47
2018-08-10T06:18:48.344Z,1.30
2018-08-10T06:21:16.683Z,1.97
2018-08-10T06:23:45.235Z,1.50
2018-08-10T06:26:13.589Z,1.80
2018-08-10T06:28:41.875Z,2.10
2018-08-10T06:31:10.261Z,1.50
2018-08-10T06:33:38.641Z,1.60
2018-08-10T06:36:07.030Z,1.60
2018-08-10T06:38:35.415Z,1.83
2018-08-10T06:41:03.784Z,1.70
2018-08-10T06:43:32.225Z,1.80
2018-08-10T06:46:00.616Z,1.70
2018-08-10T06:48:28.931Z,1.40
2018-08-10T06:50:57.338Z,1.50
2018-08-10T06:53:25.686Z,1.40
2018-08-10T06:55:54.146Z,1.30
2018-08-10T06:58:22.502Z,1.40
2018-08-10T07:00:51.914Z,1.20
2018-08-10T07:03:20.331Z,1.23
2018-08-10T07:05:48.754Z,1.30
2018-08-10T07:08:17.148Z,1.40
2018-08-10T07:10:45.592Z,1.33
2018-08-10T07:13:13.996Z,1.10
2018-08-10T07:15:42.292Z,0.80
2018-08-10T07:18:10.668Z,1.20
2018-08-10T07:20:39.020Z,1.17
2018-08-10T07:23:07.381Z,1.03
2018-08-10T07:25:35.890Z,1.37
2018-08-10T07:28:04.239Z,1.20
2018-08-10T07:30:32.593Z,0.90
2018-08-10T07:33:00.981Z,1.83
2018-08-10T07:35:29.314Z,1.43
2018-08-10T07:37:57.729Z,1.30
2018-08-10T07:40:26.112Z,1.10
2018-08-10T07:42:54.527Z,0.90
2018-08-10T07:45:22.875Z,1.20
2018-08-10T07:47:51.258Z,1.03
2018-08-10T07:50:19.561Z,1.30
2018-08-10T07:52:47.990Z,1.27
2018-08-10T07:55:16.447Z,1.10
2018-08-10T07:57:44.835Z,1.17
2018-08-10T08:00:13.256Z,1.47
2018-08-10T08:02:41.628Z,1.40
2018-08-10T08:05:10.029Z,1.20
2018-08-10T08:07:38.345Z,1.30
2018-08-10T08:10:07.051Z,1.57
2018-08-10T08:12:35.412Z,0.97
2018-08-10T08:15:03.973Z,1.00
2018-08-10T08:17:32.288Z,1.13
2018-08-10T08:20:00.982Z,0.97
2018-08-10T08:22:29.363Z,1.10
2018-08-10T08:24:57.680Z,1.20
2018-08-10T08:27:26.043Z,1.00
2018-08-10T08:29:54.417Z,1.10
2018-08-10T08:32:22.796Z,0.90
2018-08-10T08:34:51.367Z,1.03
2018-08-10T08:37:19.616Z,1.10
2018-08-10T08:40:23.130Z,1.30
2018-08-10T08:42:51.967Z,0.87
2018-08-10T08:46:07.840Z,0.90
2018-08-10T08:48:45.625Z,0.73
2018-08-10T08:51:15.788Z,0.87
2018-08-10T08:53:44.171Z,1.10
2018-08-10T08:56:18.583Z,1.07
2018-08-10T08:58:48.415Z,1.00
2018-08-10T09:01:17.466Z,1.10
2018-08-10T09:05:03.892Z,1.10
2018-08-10T09:07:32.741Z,1.00
2018-08-10T09:10:02.139Z,1.10
2018-08-10T09:12:31.113Z,1.20
2018-08-10T09:15:02.047Z,1.13
2018-08-10T09:17:30.681Z,1.67
2018-08-10T09:19:59.019Z,0.97
2018-08-10T09:22:27.494Z,1.00
2018-08-10T09:24:55.950Z,1.30
2018-08-10T09:27:24.530Z,1.37
2018-08-10T09:29:52.899Z,1.07
2018-08-10T09:32:21.354Z,1.20
2018-08-10T09:34:49.718Z,1.00
2018-08-10T09:37:18.159Z,1.40
2018-08-10T09:39:46.509Z,1.10
2018-08-10T09:42:14.959Z,1.10
2018-08-10T09:44:43.285Z,1.00
2018-08-10T09:47:11.716Z,1.37
2018-08-10T09:49:42.998Z,1.33
2018-08-10T09:52:11.460Z,1.13
2018-08-10T09:55:44.951Z,1.93
2018-08-10T09:58:15.212Z,1.30
2018-08-10T10:00:48.757Z,1.43
2018-08-10T10:03:18.555Z,1.20
2018-08-10T10:05:47.747Z,1.60
2018-08-10T10:08:16.727Z,1.10
2018-08-10T10:10:45.498Z,1.30
2018-08-10T10:13:13.835Z,1.10
2018-08-10T10:15:42.802Z,1.60
2018-08-10T10:18:12.543Z,1.10
2018-08-10T10:20:40.947Z,1.27
2018-08-10T10:23:09.499Z,1.10
2018-08-10T10:25:37.860Z,1.10
2018-08-10T10:28:06.462Z,1.23
2018-08-10T10:30:34.862Z,1.20
2018-08-10T10:33:03.262Z,1.00
2018-08-10T10:35:31.697Z,1.50
2018-08-10T10:38:00.104Z,1.40
2018-08-10T10:40:28.515Z,1.23
2018-08-10T10:42:57.053Z,1.40
2018-08-10T10:45:25.425Z,1.30
2018-08-10T10:47:53.815Z,1.23
2018-08-10T10:50:22.192Z,1.00
2018-08-10T10:52:50.900Z,1.40
2018-08-10T10:55:19.375Z,0.97
2018-08-10T10:57:48.143Z,1.20
2018-08-10T11:00:18.503Z,1.33
2018-08-10T11:02:47.450Z,1.23
2018-08-10T11:05:15.927Z,1.17
2018-08-10T11:07:44.580Z,1.00
2018-08-10T11:10:14.731Z,1.30
2018-08-10T11:12:43.100Z,1.40
2018-08-10T11:15:12.521Z,1.67
2018-08-10T11:17:40.972Z,1.40
2018-08-10T11:20:11.142Z,1.23
2018-08-10T11:22:40.653Z,1.43
2018-08-10T11:25:10.994Z,1.53
2018-08-10T11:27:40.055Z,1.30
2018-08-10T11:30:09.546Z,1.40
2018-08-10T11:32:38.262Z,1.50
2018-08-10T11:35:13.413Z,1.37
2018-08-10T11:37:43.100Z,1.67
2018-08-10T11:40:13.523Z,1.70
2018-08-10T11:42:42.820Z,1.77
2018-08-10T11:45:13.803Z,1.50
2018-08-10T11:47:42.882Z,1.40
2018-08-10T11:50:11.378Z,1.63
2018-08-10T11:52:40.215Z,1.27
2018-08-10T11:55:10.898Z,1.30
2018-08-10T11:57:40.219Z,1.20
2018-08-10T12:00:10.667Z,1.30
2018-08-10T12:02:39.309Z,1.07
2018-08-10T12:05:09.321Z,1.40
2018-08-10T12:07:37.726Z,1.20
2018-08-10T12:10:06.887Z,1.43
2018-08-10T12:12:35.447Z,1.13
2018-08-10T12:15:04.282Z,1.17
2018-08-10T12:17:33.340Z,1.43
2018-08-10T12:20:01.777Z,1.13
2018-08-10T12:22:30.230Z,1.10
2018-08-10T12:24:58.712Z,1.20
2018-08-10T12:27:27.024Z,1.20
2018-08-10T12:29:55.591Z,1.10
2018-08-10T12:32:24.154Z,1.03
2018-08-10T12:34:52.588Z,1.20
2018-08-10T12:37:21.116Z,1.37
2018-08-10T12:39:49.566Z,0.80
2018-08-10T12:42:17.961Z,1.03
2018-08-10T12:44:46.339Z,0.90
2018-08-10T12:47:14.802Z,1.50
2018-08-10T12:49:43.323Z,1.20
2018-08-10T12:52:11.846Z,1.07
2018-08-10T12:54:40.389Z,1.17
2018-08-10T12:57:08.893Z,0.97
2018-08-10T12:59:37.279Z,1.00
2018-08-10T13:02:05.924Z,1.20
2018-08-10T13:04:34.340Z,1.53
2018-08-10T13:07:03.098Z,1.27
2018-08-10T13:09:31.597Z,1.30
2018-08-10T13:12:00.079Z,1.10
2018-08-10T13:14:28.568Z,0.87
2018-08-10T13:16:57.044Z,0.90
2018-08-10T13:19:25.406Z,1.03
2018-08-10T13:21:53.915Z,0.87
2018-08-10T13:24:22.221Z,1.20
2018-08-10T13:26:50.671Z,1.20
2018-08-10T13:29:19.199Z,0.87
2018-08-10T13:31:47.652Z,1.20
2018-08-10T13:34:16.330Z,1.00
2018-08-10T13:36:44.902Z,1.00
2018-08-10T13:39:13.490Z,0.90
2018-08-10T13:41:42.835Z,1.17
2018-08-10T13:44:11.865Z,1.03
2018-08-10T13:46:40.392Z,1.10
2018-08-10T13:49:08.995Z,1.23
2018-08-10T13:51:37.437Z,1.27
2018-08-10T13:54:06.481Z,0.97
2018-08-10T13:56:35.384Z,1.00
2018-08-10T13:59:03.762Z,1.07
2018-08-10T14:01:32.986Z,1.23
2018-08-10T14:04:01.502Z,1.07
2018-08-10T14:06:30.477Z,1.10
2018-08-10T14:08:59.465Z,1.20
2018-08-10T14:11:28.516Z,1.00
2018-08-10T14:13:56.895Z,1.10
2018-08-10T14:16:25.432Z,1.30
2018-08-10T14:18:54.026Z,1.30
2018-08-10T14:21:22.541Z,1.47
2018-08-10T14:23:50.940Z,1.00
2018-08-10T14:26:19.317Z,1.13
2018-08-10T14:28:48.135Z,0.90
2018-08-10T14:31:16.515Z,1.00
2018-08-10T14:33:44.875Z,1.20
2018-08-10T14:36:13.289Z,1.10
2018-08-10T14:38:41.749Z,1.00
2018-08-10T14:41:10.185Z,0.90
2018-08-10T14:43:38.589Z,0.80
2018-08-10T14:46:07.020Z,0.80
2018-08-10T14:48:35.410Z,1.00
2018-08-10T14:51:03.918Z,1.30
2018-08-10T14:53:32.593Z,1.00
2018-08-10T14:56:01.177Z,0.90
2018-08-10T14:58:29.630Z,0.90
2018-08-10T15:00:57.980Z,1.10
2018-08-10T15:03:26.362Z,1.10
2018-08-10T15:05:54.738Z,1.20
2018-08-10T15:08:23.050Z,1.20
2018-08-10T15:10:51.431Z,1.13
2018-08-10T15:13:19.800Z,1.10
2018-08-10T15:15:48.185Z,1.10
2018-08-10T15:18:16.602Z,1.40
2018-08-10T15:20:45.059Z,1.20
2018-08-10T15:23:13.501Z,1.30
2018-08-10T15:25:41.910Z,1.10
2018-08-10T15:28:10.285Z,1.20
2018-08-10T15:30:38.674Z,1.17
2018-08-10T15:33:07.127Z,0.97
2018-08-10T15:35:35.560Z,1.30
2018-08-10T15:38:04.058Z,0.97
2018-08-10T15:40:32.474Z,1.10
2018-08-10T15:43:00.894Z,1.10
2018-08-10T15:45:29.249Z,0.83
2018-08-10T15:47:57.624Z,1.27
2018-08-10T15:50:26.359Z,1.20
2018-08-10T15:52:54.704Z,1.00
2018-08-10T15:55:23.167Z,1.00
2018-08-10T15:57:51.514Z,1.50
2018-08-10T16:00:23.112Z,1.03
2018-08-10T16:02:51.536Z,1.07
2018-08-10T16:05:19.953Z,1.30
2018-08-10T16:07:48.391Z,1.27
2018-08-10T16:10:17.183Z,1.30
2018-08-10T16:12:45.946Z,1.20
2018-08-10T16:15:15.575Z,0.90
2018-08-10T16:17:43.998Z,1.27
2018-08-10T16:20:14.570Z,1.10
2018-08-10T16:22:42.948Z,1.00
2018-08-10T16:25:12.316Z,1.17
2018-08-10T16:27:41.618Z,1.00
2018-08-10T16:30:11.958Z,1.20
2018-08-10T16:32:41.429Z,0.90
2018-08-10T16:35:11.889Z,1.40
2018-08-10T16:37:41.480Z,0.80
2018-08-10T16:40:10.892Z,1.03
2018-08-10T16:42:40.479Z,1.27
2018-08-10T16:45:09.588Z,1.07
2018-08-10T16:47:38.984Z,1.20
2018-08-10T16:50:10.031Z,1.03
2018-08-10T16:52:38.547Z,1.20
2018-08-10T16:55:09.295Z,1.20
2018-08-10T16:57:38.377Z,1.40
2018-08-10T17:00:08.138Z,1.37
2018-08-10T17:02:36.646Z,1.23
2018-08-10T17:05:05.994Z,1.00
2018-08-10T17:07:34.395Z,1.30
2018-08-10T17:10:02.758Z,1.17
2018-08-10T17:12:31.164Z,1.10
2018-08-10T17:14:59.584Z,1.10
2018-08-10T17:17:28.093Z,1.07
2018-08-10T17:19:56.607Z,1.20
2018-08-10T17:22:25.336Z,1.10
2018-08-10T17:24:53.711Z,0.93
2018-08-10T17:27:22.095Z,1.07
2018-08-10T17:29:50.507Z,1.10
2018-08-10T17:32:18.896Z,1.00
2018-08-10T17:34:47.295Z,1.10
2018-08-10T17:37:15.798Z,1.00
2018-08-10T17:39:44.466Z,0.80
2018-08-10T17:42:13.088Z,1.13
2018-08-10T17:44:41.449Z,0.97
2018-08-10T17:47:09.827Z,1.27
2018-08-10T17:49:38.181Z,1.00
2018-08-10T17:52:06.612Z,1.10
2018-08-10T17:54:35.115Z,1.10
2018-08-10T17:57:03.537Z,0.80
2018-08-10T17:59:31.942Z,1.33
2018-08-10T18:02:00.383Z,1.30
2018-08-10T18:04:28.763Z,1.40
2018-08-10T18:06:57.107Z,1.37
2018-08-10T18:09:25.542Z,1.07
2018-08-10T18:11:53.957Z,1.17
2018-08-10T18:14:23.193Z,1.07
2018-08-10T18:16:51.599Z,1.13
2018-08-10T18:19:20.052Z,1.17
2018-08-10T18:21:48.482Z,1.00
2018-08-10T18:24:17.317Z,1.13
2018-08-10T18:26:46.290Z,1.37
2018-08-10T18:29:15.542Z,1.43
2018-08-10T18:31:44.576Z,1.50
2018-08-10T18:34:13.333Z,1.27
2018-08-10T18:36:41.727Z,1.27
2018-08-10T18:39:12.430Z,1.17
2018-08-10T18:41:41.836Z,1.30
2018-08-10T18:44:11.094Z,1.83
2018-08-10T18:46:40.240Z,1.60
2018-08-10T18:49:09.908Z,1.73
2018-08-10T18:51:38.532Z,1.50
2018-08-10T18:54:07.491Z,1.40
2018-08-10T18:56:36.318Z,1.80
2018-08-10T18:59:05.032Z,1.80
2018-08-10T19:01:33.782Z,1.70
2018-08-10T19:04:02.292Z,1.70
2018-08-10T19:06:30.831Z,1.83
2018-08-10T19:09:00.513Z,1.70
2018-08-10T19:11:29.023Z,1.43
2018-08-10T19:13:58.136Z,1.60
2018-08-10T19:16:26.868Z,1.90
2018-08-10T19:18:55.359Z,2.23
2018-08-10T19:21:23.889Z,1.90
2018-08-10T19:23:52.340Z,1.93
2018-08-10T19:26:22.694Z,2.00
2018-08-10T19:28:54.529Z,2.50
2018-08-10T19:33:54.187Z,2.97
2018-08-10T19:36:23.458Z,2.40
2018-08-10T19:38:52.248Z,3.60
2018-08-10T19:41:20.944Z,3.70
2018-08-10T19:43:49.496Z,3.53
2018-08-10T19:46:18.198Z,2.60
2018-08-10T19:48:46.662Z,2.83
2018-08-10T19:51:15.076Z,1.80
2018-08-10T19:53:45.833Z,2.10
2018-08-10T19:56:14.576Z,2.37
2018-08-10T19:58:43.144Z,1.93
2018-08-10T20:01:11.935Z,1.60
2018-08-10T20:03:40.839Z,1.80
2018-08-10T20:06:09.309Z,1.20
2018-08-10T20:08:41.225Z,1.63
2018-08-10T20:11:17.990Z,1.47
2018-08-10T20:13:50.180Z,1.73
2018-08-10T20:17:03.238Z,1.57
2018-08-10T20:19:36.623Z,1.23
2018-08-10T20:22:14.797Z,1.50
2018-08-10T20:24:50.542Z,1.03
2018-08-10T20:27:20.952Z,1.17
2018-08-10T20:29:52.411Z,1.37
2018-08-10T20:32:25.035Z,1.20
2018-08-10T20:34:53.458Z,1.47
2018-08-10T20:37:21.857Z,1.57
2018-08-10T20:39:50.925Z,2.00
2018-08-10T20:42:19.310Z,1.57
2018-08-10T20:44:48.445Z,2.00
2018-08-10T20:47:16.949Z,1.50
2018-08-10T20:49:45.361Z,1.73
2018-08-10T20:52:15.445Z,1.60
2018-08-10T20:54:44.136Z,1.77
2018-08-10T20:57:12.878Z,1.80
2018-08-10T20:59:41.471Z,1.67
2018-08-10T21:02:10.121Z,2.00
2018-08-10T21:04:38.486Z,1.73
2018-08-10T21:07:07.122Z,1.90
2018-08-10T21:09:35.519Z,2.03
2018-08-10T21:12:03.911Z,2.00
2018-08-10T21:14:32.259Z,2.43
2018-08-10T21:17:00.605Z,1.93
2018-08-10T21:19:28.994Z,2.00
2018-08-10T21:21:57.393Z,1.80
2018-08-10T21:24:25.805Z,1.50
2018-08-10T21:26:54.293Z,1.57
2018-08-10T21:29:22.643Z,1.50
2018-08-10T21:31:51.000Z,1.20
2018-08-10T21:34:19.398Z,1.60
2018-08-10T21:36:48.054Z,1.40
2018-08-10T21:39:16.460Z,1.50
2018-08-10T21:41:44.882Z,1.37
2018-08-10T21:44:13.275Z,1.40
2018-08-10T21:46:41.721Z,1.60
2018-08-10T21:49:10.540Z,1.60
2018-08-10T21:51:38.917Z,1.70
2018-08-10T21:54:07.269Z,1.93
2018-08-10T21:56:35.579Z,1.70
2018-08-10T21:59:04.014Z,1.63
2018-08-10T22:01:32.543Z,1.67
2018-08-10T22:04:02.710Z,1.43
2018-08-10T22:06:31.901Z,1.60
2018-08-10T22:09:00.377Z,1.67
2018-08-10T22:11:28.761Z,1.80
2018-08-10T22:14:02.460Z,1.77
2018-08-10T22:16:36.130Z,1.50
2018-08-10T22:19:09.885Z,1.77
2018-08-10T22:21:38.322Z,1.60
2018-08-10T22:24:06.760Z,1.23
2018-08-10T22:26:35.128Z,1.20
2018-08-10T22:29:04.091Z,1.30
2018-08-10T22:31:32.575Z,1.80
2018-08-10T22:34:01.270Z,1.20
2018-08-10T22:36:29.733Z,1.40
2018-08-10T22:38:58.154Z,1.53
2018-08-10T22:41:26.515Z,1.20
2018-08-10T22:43:54.869Z,1.63
2018-08-10T22:46:23.311Z,1.60
2018-08-10T22:48:51.641Z,1.80
2018-08-10T22:51:20.006Z,1.30
2018-08-10T22:53:48.406Z,1.80
2018-08-10T22:56:16.819Z,1.60
2018-08-10T22:58:45.218Z,1.60
2018-08-10T23:01:13.598Z,1.40
2018-08-10T23:03:41.980Z,1.40
2018-08-10T23:06:10.610Z,1.60
2018-08-10T23:08:39.037Z,1.47
2018-08-10T23:11:07.411Z,1.50
2018-08-10T23:13:35.913Z,1.30
2018-08-10T23:16:04.382Z,1.67
2018-08-10T23:18:32.760Z,1.30
2018-08-10T23:21:01.148Z,1.43
2018-08-10T23:23:29.594Z,1.67
2018-08-10T23:25:57.940Z,1.33
2018-08-10T23:28:26.318Z,1.40
2018-08-10T23:30:54.828Z,1.30
2018-08-10T23:33:23.464Z,1.60
2018-08-10T23:35:52.070Z,1.27
2018-08-10T23:38:20.490Z,1.50
2018-08-10T23:40:48.872Z,1.77
2018-08-10T23:43:17.333Z,1.60
2018-08-10T23:45:45.728Z,1.63
2018-08-10T23:48:14.115Z,1.27
2018-08-10T23:50:42.496Z,1.83
2018-08-10T23:53:10.870Z,1.60
2018-08-10T23:55:39.268Z,1.20
2018-08-10T23:58:07.835Z,1.70
